Time;durP1;ratioP1;P1;durP2;ratioP2;P2;SDS_P1;SDS_P2;PMS_P1;PMS_P2;Temp;Humidity;BMP_temperature;BMP_pressure;BME280_temperature;BME280_humidity;BME280_pressure;Samples;Min_cycle;Max_cycle;Signal;HPM_P1;HPM_P2
2023/03/18 00:01:54;;;;;;;12.95;7.50;;;;;;;11.83;76.45;100693.69;5114412;27;20019;-61
2023/03/18 00:04:20;;;;;;;13.82;7.40;;;;;;;11.85;76.88;100698.88;5114407;28;20482;-60
2023/03/18 00:06:46;;;;;;;13.43;7.72;;;;;;;11.82;76.78;100692.03;5112595;28;20041;-60
2023/03/18 00:09:12;;;;;;;12.93;7.93;;;;;;;11.82;77.07;100691.16;5111895;28;20020;-60
2023/03/18 00:11:39;;;;;;;14.57;8.65;;;;;;;11.79;77.69;100694.94;5113346;28;20024;-61
2023/03/18 00:14:05;;;;;;;16.52;8.10;;;;;;;11.78;77.90;100703.88;5113890;28;20032;-61
2023/03/18 00:16:31;;;;;;;13.00;7.90;;;;;;;11.75;77.76;100706.78;5106250;28;20034;-61
2023/03/18 00:18:56;;;;;;;14.95;7.35;;;;;;;11.73;78.10;100706.06;5112083;28;20028;-61
2023/03/18 00:21:22;;;;;;;13.80;8.43;;;;;;;11.72;78.22;100704.38;5111688;28;20120;-61
2023/03/18 00:23:49;;;;;;;15.35;8.02;;;;;;;11.71;77.90;100704.50;5099800;28;20074;-61
2023/03/18 00:26:15;;;;;;;14.48;8.05;;;;;;;11.70;78.00;100711.66;5100807;28;20157;-60
2023/03/18 00:28:41;;;;;;;11.57;7.82;;;;;;;11.68;78.65;100716.25;5112124;28;20466;-61
2023/03/18 00:31:09;;;;;;;15.10;8.50;;;;;;;11.66;79.13;100721.72;5101967;28;20028;-61
2023/03/18 00:33:39;;;;;;;16.25;8.15;;;;;;;11.64;79.01;100723.66;5111540;28;20019;-60
2023/03/18 00:36:08;;;;;;;14.75;8.07;;;;;;;11.64;79.21;100723.66;5113128;28;20023;-61
2023/03/18 00:38:35;;;;;;;13.45;8.18;;;;;;;11.63;78.86;100721.13;5110134;28;20027;-60
2023/03/18 00:41:09;;;;;;;10.88;7.60;;;;;;;11.62;79.42;100722.09;5111478;28;20044;-61
2023/03/18 00:43:44;;;;;;;13.55;7.90;;;;;;;11.61;79.78;100723.06;5112286;28;20112;-60
2023/03/18 00:46:11;;;;;;;13.63;7.90;;;;;;;11.59;79.78;100725.00;5116749;27;20578;-61
2023/03/18 00:48:37;;;;;;;17.02;7.97;;;;;;;11.58;79.95;100726.81;5116224;28;20024;-61
2023/03/18 00:51:03;;;;;;;15.38;8.32;;;;;;;11.56;80.38;100735.91;5115637;27;20118;-60
2023/03/18 00:53:29;;;;;;;15.15;8.27;;;;;;;11.54;80.31;100736.03;5116600;27;20028;-61
2023/03/18 00:55:54;;;;;;;12.68;7.70;;;;;;;11.54;80.61;100740.50;5116099;27;20026;-59
2023/03/18 00:58:19;;;;;;;15.07;8.57;;;;;;;11.52;80.81;100739.78;5116285;27;20024;-61
2023/03/18 01:00:45;;;;;;;12.70;8.02;;;;;;;11.50;81.28;100736.41;5108727;27;20071;-61
2023/03/18 01:03:12;;;;;;;16.90;8.68;;;;;;;11.49;81.55;100738.25;5110909;27;20077;-60
2023/03/18 01:05:38;;;;;;;11.77;8.15;;;;;;;11.47;81.61;100741.03;5116021;27;20381;-61
2023/03/18 01:08:04;;;;;;;13.63;7.50;;;;;;;11.46;82.21;100736.66;5115701;27;20044;-61
2023/03/18 01:10:30;;;;;;;18.88;8.35;;;;;;;11.45;83.11;100731.47;5115777;27;20031;-60
2023/03/18 01:12:57;;;;;;;15.40;7.97;;;;;;;11.44;83.47;100720.00;5116205;27;20042;-60
2023/03/18 01:15:22;;;;;;;12.85;8.02;;;;;;;11.43;84.30;100723.59;5104811;27;20031;-60
2023/03/18 01:17:49;;;;;;;12.95;8.13;;;;;;;11.43;84.65;100728.09;5116002;27;20026;-60
2023/03/18 01:20:18;;;;;;;14.55;8.50;;;;;;;11.43;85.73;100720.13;5115574;27;20442;-60
2023/03/18 01:22:44;;;;;;;14.48;8.57;;;;;;;11.43;86.02;100720.13;5115803;27;20028;-60
2023/03/18 01:25:12;;;;;;;15.98;8.02;;;;;;;11.42;86.55;100723.72;5112009;27;20035;-61
2023/03/18 01:27:37;;;;;;;13.73;8.40;;;;;;;11.41;87.42;100720.25;5115718;27;20040;-61
2023/03/18 01:30:04;;;;;;;18.77;9.60;;;;;;;11.39;88.73;100724.84;5115046;27;20047;-61
2023/03/18 01:32:30;;;;;;;19.98;8.85;;;;;;;11.36;89.10;100727.75;5103884;28;20517;-61
2023/03/18 01:34:55;;;;;;;17.13;8.88;;;;;;;11.33;90.01;100729.81;5112746;28;20035;-61
2023/03/18 01:37:21;;;;;;;20.27;9.38;;;;;;;11.29;90.82;100726.53;5114649;28;20031;-61
2023/03/18 01:39:46;;;;;;;19.80;9.50;;;;;;;11.26;91.96;100718.84;5114692;28;20019;-61
2023/03/18 01:42:13;;;;;;;16.33;9.20;;;;;;;11.23;93.62;100721.75;5103425;28;20071;-61
2023/03/18 01:44:39;;;;;;;21.25;10.52;;;;;;;11.19;94.86;100720.28;5097791;28;20024;-61
2023/03/18 01:47:04;;;;;;;15.95;10.45;;;;;;;11.13;96.45;100721.66;5114533;27;20028;-61
2023/03/18 01:49:35;;;;;;;20.27;10.95;;;;;;;11.09;97.12;100723.72;5115104;27;20023;-61
2023/03/18 01:52:14;;;;;;;23.27;12.32;;;;;;;11.08;98.36;100713.19;5114270;28;20120;-62
2023/03/18 01:54:46;;;;;;;23.10;11.25;;;;;;;11.03;99.40;100720.72;5114951;27;20026;-61
2023/03/18 01:57:12;;;;;;;21.25;11.35;;;;;;;11.00;100.00;100726.25;5101836;28;20077;-62
2023/03/18 01:59:40;;;;;;;22.83;12.00;;;;;;;10.96;100.00;100719.50;5113750;28;20106;-62
2023/03/18 02:02:09;;;;;;;17.70;10.85;;;;;;;10.92;100.00;100725.06;5110408;27;20097;-62
2023/03/18 02:05:05;;;;;;;18.88;11.63;;;;;;;10.93;100.00;100729.41;5112975;28;20077;-62
2023/03/18 02:07:33;;;;;;;17.70;12.15;;;;;;;10.87;100.00;100716.59;5097224;28;20075;-62
2023/03/18 02:10:02;;;;;;;18.75;12.70;;;;;;;10.84;100.00;100716.88;5114778;27;20039;-62
2023/03/18 02:12:32;;;;;;;19.35;11.48;;;;;;;10.84;100.00;100721.31;5114088;28;20019;-62
2023/03/18 02:15:00;;;;;;;17.95;12.63;;;;;;;10.83;100.00;100717.00;5110305;28;20382;-62
2023/03/18 02:17:30;;;;;;;25.70;13.07;;;;;;;10.78;100.00;100713.84;5114119;28;20019;-62
2023/03/18 02:20:13;;;;;;;24.25;13.85;;;;;;;10.76;100.00;100721.06;5113570;28;20031;-62
2023/03/18 02:22:44;;;;;;;20.67;13.25;;;;;;;10.72;100.00;100725.78;5113764;28;20110;-62
2023/03/18 02:26:17;;;;;;;24.27;13.50;;;;;;;10.75;100.00;100733.53;5108278;27;20078;-62
2023/03/18 02:28:44;;;;;;;25.35;13.82;;;;;;;10.70;100.00;100739.19;5016280;28;20443;-62
2023/03/18 02:31:13;;;;;;;23.70;13.63;;;;;;;10.69;100.00;100742.84;5037698;28;20078;-62
2023/03/18 02:33:41;;;;;;;22.98;13.88;;;;;;;10.68;100.00;100746.44;5087203;28;20050;-62
2023/03/18 02:36:16;;;;;;;22.47;14.37;;;;;;;10.66;100.00;100745.72;5112128;28;20363;-62
2023/03/18 02:38:43;;;;;;;22.00;14.95;;;;;;;10.65;100.00;100743.19;5112220;28;20039;-62
2023/03/18 02:41:21;;;;;;;24.15;15.00;;;;;;;10.63;100.00;100742.47;5111202;28;20377;-62
2023/03/18 02:43:48;;;;;;;23.70;13.90;;;;;;;10.62;100.00;100749.56;5113958;28;20381;-62
2023/03/18 02:46:35;;;;;;;22.60;14.48;;;;;;;10.60;100.00;100756.00;5113517;27;20462;-62
2023/03/18 02:49:05;;;;;;;26.15;15.27;;;;;;;10.58;100.00;100744.66;5113487;27;20028;-62
2023/03/18 02:51:31;;;;;;;20.27;14.65;;;;;;;10.56;100.00;100755.38;5113522;28;20019;-62
2023/03/18 02:54:02;;;;;;;24.45;14.60;;;;;;;10.52;100.00;100754.78;5113488;27;20038;-62
2023/03/18 02:56:28;;;;;;;24.45;14.95;;;;;;;10.54;100.00;100766.13;5113948;27;20649;-61
2023/03/18 02:58:53;;;;;;;24.38;14.95;;;;;;;10.52;100.00;100751.25;5103446;27;20015;-61
2023/03/18 03:01:19;;;;;;;24.50;16.48;;;;;;;10.51;100.00;100762.88;5113780;27;20023;-61
2023/03/18 03:03:45;;;;;;;27.33;15.02;;;;;;;10.51;100.00;100771.69;5112387;28;20103;-61
2023/03/18 03:06:10;;;;;;;22.83;16.70;;;;;;;10.51;100.00;100770.84;5113767;27;20062;-61
2023/03/18 03:08:37;;;;;;;20.85;14.65;;;;;;;10.51;100.00;100781.47;5112379;27;20024;-61
2023/03/18 03:11:03;;;;;;;23.15;15.68;;;;;;;10.49;100.00;100775.41;5113740;27;20028;-61
2023/03/18 03:13:28;;;;;;;22.13;15.18;;;;;;;10.49;100.00;100783.38;5112269;28;20115;-62
2023/03/18 03:15:54;;;;;;;24.20;15.68;;;;;;;10.47;100.00;100780.81;5113435;27;20111;-61
2023/03/18 03:18:20;;;;;;;22.65;15.98;;;;;;;10.47;100.00;100788.78;5102728;27;20482;-61
2023/03/18 03:20:46;;;;;;;21.10;14.95;;;;;;;10.48;100.00;100774.56;5113166;28;20035;-61
2023/03/18 03:23:14;;;;;;;23.27;15.73;;;;;;;10.48;100.00;100785.19;5112730;27;20470;-60
2023/03/18 03:25:40;;;;;;;23.08;15.98;;;;;;;10.49;100.00;100778.06;5104251;28;20032;-61
2023/03/18 03:28:07;;;;;;;20.95;16.02;;;;;;;10.47;100.00;100783.47;5110680;27;20110;-61
2023/03/18 03:30:33;;;;;;;25.73;16.23;;;;;;;10.47;100.00;100783.47;5112813;28;20385;-61
2023/03/18 03:33:00;;;;;;;25.63;15.98;;;;;;;10.47;100.00;100780.00;5110705;28;20145;-61
2023/03/18 03:35:26;;;;;;;22.95;16.23;;;;;;;10.46;100.00;100786.25;5113219;27;20032;-61
2023/03/18 03:37:52;;;;;;;23.80;15.40;;;;;;;10.47;100.00;100790.63;5094925;28;20039;-61
2023/03/18 03:40:19;;;;;;;28.38;17.30;;;;;;;10.45;100.00;100780.09;5112667;28;20033;-60
2023/03/18 03:42:45;;;;;;;25.08;16.48;;;;;;;10.45;100.00;100787.22;5111517;28;20063;-61
2023/03/18 03:45:13;;;;;;;25.67;16.52;;;;;;;10.42;100.00;100779.50;5112560;27;20083;-62
2023/03/18 03:47:40;;;;;;;24.98;15.48;;;;;;;10.44;100.00;100791.72;5111505;28;20049;-61
2023/03/18 03:50:07;;;;;;;23.15;16.17;;;;;;;10.44;100.00;100793.50;5111972;28;20015;-60
2023/03/18 03:52:33;;;;;;;23.48;16.38;;;;;;;10.44;100.00;100798.81;5105415;28;20123;-60
2023/03/18 03:54:59;;;;;;;23.38;17.20;;;;;;;10.43;100.00;100797.13;5113933;27;20118;-61
2023/03/18 03:57:25;;;;;;;24.25;17.23;;;;;;;10.43;100.00;100794.47;5112098;28;20476;-61
2023/03/18 03:59:50;;;;;;;22.73;17.30;;;;;;;10.42;100.00;100798.09;5115088;27;20027;-61
2023/03/18 04:02:16;;;;;;;24.42;16.63;;;;;;;10.40;100.00;100795.53;5116525;28;20136;-61
2023/03/18 04:04:42;;;;;;;23.55;16.52;;;;;;;10.41;100.00;100797.25;5115312;27;20039;-61
2023/03/18 04:07:07;;;;;;;25.20;16.90;;;;;;;10.40;100.00;100798.19;5112226;28;20486;-61
2023/03/18 04:09:34;;;;;;;26.77;17.33;;;;;;;10.41;100.00;100796.38;5112087;28;20490;-61
2023/03/18 04:12:01;;;;;;;23.52;16.58;;;;;;;10.41;100.00;100804.34;5112020;28;20080;-61
2023/03/18 04:14:26;;;;;;;24.70;17.17;;;;;;;10.40;100.00;100808.00;5102677;28;20385;-59
2023/03/18 04:16:51;;;;;;;25.65;17.38;;;;;;;10.40;100.00;100802.69;5112097;28;20028;-66
2023/03/18 04:19:17;;;;;;;23.10;17.02;;;;;;;10.40;100.00;100803.50;5104369;28;20102;-61
2023/03/18 04:21:43;;;;;;;24.15;17.48;;;;;;;10.39;100.00;100800.97;5119388;27;20036;-62
2023/03/18 04:24:09;;;;;;;23.60;18.00;;;;;;;10.38;100.00;100808.09;5101241;28;20389;-61
2023/03/18 04:26:35;;;;;;;22.23;16.55;;;;;;;10.38;100.00;100808.09;5120237;27;20485;-61
2023/03/18 04:29:00;;;;;;;23.08;17.27;;;;;;;10.36;100.00;100810.88;5112375;28;20102;-61
2023/03/18 04:31:25;;;;;;;24.88;18.25;;;;;;;10.38;100.00;100816.06;5116127;27;20386;-61
2023/03/18 04:33:51;;;;;;;23.88;18.63;;;;;;;10.36;100.00;100804.72;5116314;27;20028;-61
2023/03/18 04:36:16;;;;;;;23.75;17.70;;;;;;;10.35;100.00;100803.84;5110045;27;20039;-61
2023/03/18 04:38:41;;;;;;;26.58;18.63;;;;;;;10.33;100.00;100813.75;5109199;27;20023;-61
2023/03/18 04:41:07;;;;;;;27.23;18.23;;;;;;;10.32;100.00;100820.00;5097379;28;20035;-62
2023/03/18 04:43:33;;;;;;;25.27;18.17;;;;;;;10.31;100.00;100823.63;5107418;28;20522;-61
2023/03/18 04:45:58;;;;;;;26.55;18.42;;;;;;;10.31;100.00;100836.91;5114179;27;20062;-61
2023/03/18 04:48:24;;;;;;;28.73;19.27;;;;;;;10.31;100.00;100833.41;5115534;28;20023;-61
2023/03/18 04:50:49;;;;;;;23.98;18.50;;;;;;;10.32;100.00;100837.75;5119262;27;20041;-61
2023/03/18 04:53:15;;;;;;;23.90;18.25;;;;;;;10.31;100.00;100823.63;5116313;28;20027;-61
2023/03/18 04:55:42;;;;;;;23.50;17.77;;;;;;;10.31;100.00;100826.28;5116902;27;20024;-61
2023/03/18 04:58:08;;;;;;;23.70;17.77;;;;;;;10.31;100.00;100833.41;5108190;28;20393;-61
2023/03/18 05:00:34;;;;;;;26.02;18.35;;;;;;;10.30;100.00;100840.50;5115156;28;20024;-62
2023/03/18 05:03:00;;;;;;;24.23;18.55;;;;;;;10.30;100.00;100842.31;5115267;28;20055;-61
2023/03/18 05:05:26;;;;;;;23.85;18.80;;;;;;;10.27;100.00;100838.06;5114982;28;20038;-62
2023/03/18 05:07:51;;;;;;;27.15;18.48;;;;;;;10.27;100.00;100840.72;5115114;27;20110;-61
2023/03/18 05:10:18;;;;;;;25.35;19.52;;;;;;;10.26;100.00;100849.66;5115443;27;20106;-61
2023/03/18 05:12:43;;;;;;;25.30;17.80;;;;;;;10.25;100.00;100841.81;5105461;28;20068;-61
2023/03/18 05:15:10;;;;;;;25.92;18.23;;;;;;;10.26;100.00;100841.72;5114976;28;20015;-61
2023/03/18 05:17:35;;;;;;;25.50;19.15;;;;;;;10.25;100.00;100839.16;5109098;28;20034;-61
2023/03/18 05:20:01;;;;;;;27.75;17.92;;;;;;;10.25;100.00;100836.50;5122987;27;20098;-62
2023/03/18 05:22:26;;;;;;;25.90;18.40;;;;;;;10.23;100.00;100836.63;5114725;28;20077;-61
2023/03/18 05:24:52;;;;;;;27.48;19.13;;;;;;;10.24;100.00;100835.69;5113620;28;20094;-61
2023/03/18 05:27:18;;;;;;;25.55;18.35;;;;;;;10.24;100.00;100819.75;5120028;27;20032;-61
2023/03/18 05:29:44;;;;;;;26.73;17.33;;;;;;;10.24;100.00;100832.16;5117347;27;20034;-62
2023/03/18 05:32:11;;;;;;;22.80;17.98;;;;;;;10.22;100.00;100831.44;5117142;27;20023;-61
2023/03/18 05:34:38;;;;;;;22.33;18.25;;;;;;;10.20;100.00;100831.53;5114595;28;20080;-62
2023/03/18 05:37:05;;;;;;;22.80;16.95;;;;;;;10.20;100.00;100823.56;5114630;28;20031;-61
2023/03/18 05:39:32;;;;;;;26.40;18.33;;;;;;;10.18;100.00;100828.16;5112458;28;20070;-61
2023/03/18 05:41:58;;;;;;;24.92;18.30;;;;;;;10.16;100.00;100830.94;5115401;28;20052;-61
2023/03/18 05:44:24;;;;;;;23.98;17.88;;;;;;;10.15;100.00;100837.19;5114644;27;20443;-61
2023/03/18 05:46:51;;;;;;;25.63;18.05;;;;;;;10.12;100.00;100834.75;5115499;27;20330;-61
2023/03/18 05:49:17;;;;;;;25.33;17.63;;;;;;;10.11;100.00;100845.53;5111836;27;20435;-61
2023/03/18 05:51:43;;;;;;;24.67;17.80;;;;;;;10.10;100.00;100854.44;5109755;27;20028;-61
2023/03/18 05:54:09;;;;;;;26.25;18.83;;;;;;;10.08;100.00;100853.72;5111838;28;20505;-61
2023/03/18 05:56:34;;;;;;;22.88;17.33;;;;;;;10.06;100.00;100866.22;5103805;28;20028;-61
2023/03/18 05:58:59;;;;;;;24.63;17.77;;;;;;;10.04;100.00;100874.28;5108795;28;20016;-61
2023/03/18 06:01:25;;;;;;;25.52;19.20;;;;;;;10.02;100.00;100873.56;5111723;28;20032;-61
2023/03/18 06:03:52;;;;;;;26.08;18.38;;;;;;;9.99;100.00;100872.00;5118187;27;20015;-61
2023/03/18 06:06:18;;;;;;;23.05;18.08;;;;;;;9.97;100.00;100875.72;5115274;28;20046;-61
2023/03/18 06:08:44;;;;;;;25.02;18.38;;;;;;;9.93;100.00;100875.09;5118590;27;20034;-62
2023/03/18 06:11:10;;;;;;;24.85;18.35;;;;;;;9.91;100.00;100878.81;5107892;28;20032;-62
2023/03/18 06:13:35;;;;;;;26.88;17.92;;;;;;;9.88;100.00;100876.41;5111165;28;20032;-62
2023/03/18 06:16:00;;;;;;;23.50;17.58;;;;;;;9.85;100.00;100869.50;5107864;28;20035;-62
2023/03/18 06:18:26;;;;;;;23.00;17.75;;;;;;;9.84;100.00;100870.44;5111753;28;20418;-61
2023/03/18 06:20:52;;;;;;;23.42;17.38;;;;;;;9.81;100.00;100876.00;5115055;27;20030;-62
2023/03/18 06:23:17;;;;;;;23.25;16.80;;;;;;;9.80;100.00;100876.94;5102012;28;20106;-62
2023/03/18 06:25:43;;;;;;;25.17;17.48;;;;;;;9.78;100.00;100871.75;5096157;28;20024;-61
2023/03/18 06:28:08;;;;;;;22.45;17.23;;;;;;;9.78;100.00;100869.09;5090226;28;20028;-61
2023/03/18 06:30:33;;;;;;;22.38;17.20;;;;;;;9.76;100.00;100865.72;5118082;27;20052;-61
2023/03/18 06:32:59;;;;;;;22.08;17.20;;;;;;;9.75;100.00;100877.28;5121084;27;20029;-62
2023/03/18 06:35:27;;;;;;;23.85;17.40;;;;;;;9.75;100.00;100884.41;5116014;27;20044;-61
2023/03/18 06:37:53;;;;;;;20.80;16.63;;;;;;;9.74;100.00;100875.59;5113127;28;20125;-61
2023/03/18 06:40:19;;;;;;;21.25;16.45;;;;;;;9.73;100.00;100883.66;5114732;28;20106;-61
2023/03/18 06:42:45;;;;;;;22.80;17.48;;;;;;;9.73;100.00;100889.81;5092039;28;20418;-61
2023/03/18 06:45:11;;;;;;;23.02;17.52;;;;;;;9.73;100.00;100894.28;5086887;28;20490;-61
2023/03/18 06:47:37;;;;;;;25.80;17.50;;;;;;;9.73;100.00;100900.41;5087784;28;20417;-61
2023/03/18 06:50:03;;;;;;;25.80;18.02;;;;;;;9.73;100.00;100892.47;5098302;28;20043;-61
2023/03/18 06:52:28;;;;;;;22.25;17.23;;;;;;;9.73;100.00;100894.28;5089765;28;20032;-62
2023/03/18 06:54:54;;;;;;;24.65;18.05;;;;;;;9.75;100.00;100893.19;5091151;28;20027;-61
2023/03/18 06:57:20;;;;;;;24.55;18.20;;;;;;;9.76;100.00;100899.38;5095806;28;20080;-62
2023/03/18 06:59:46;;;;;;;24.40;18.13;;;;;;;9.76;100.00;100899.38;5093694;28;20400;-61
2023/03/18 07:02:12;;;;;;;24.27;18.83;;;;;;;9.75;100.00;100903.81;5093161;28;20062;-61
2023/03/18 07:04:37;;;;;;;26.95;18.45;;;;;;;9.78;100.00;100910.72;5092707;28;20051;-61
2023/03/18 07:07:03;;;;;;;25.58;19.30;;;;;;;9.80;100.00;100906.13;5090226;28;20036;-61
2023/03/18 07:09:30;;;;;;;22.83;19.02;;;;;;;9.81;100.00;100913.97;5090487;28;20012;-61
2023/03/18 07:11:55;;;;;;;26.38;20.25;;;;;;;9.84;100.00;100910.25;5091111;28;20032;-61
2023/03/18 07:14:22;;;;;;;26.25;19.52;;;;;;;9.85;100.00;100922.56;5091383;28;20040;-61
2023/03/18 07:16:47;;;;;;;26.25;19.42;;;;;;;9.86;100.00;100912.78;5091319;28;20367;-62
2023/03/18 07:19:12;;;;;;;22.80;18.92;;;;;;;9.91;100.00;100923.91;5092876;28;20032;-61
2023/03/18 07:21:39;;;;;;;25.00;18.17;;;;;;;9.93;100.00;100928.16;5081442;28;20036;-62
2023/03/18 07:24:05;;;;;;;26.45;19.25;;;;;;;9.96;100.00;100927.94;5098026;28;20056;-61
2023/03/18 07:26:30;;;;;;;25.35;19.60;;;;;;;9.99;100.00;100921.53;5097684;28;20625;-61
2023/03/18 07:28:56;;;;;;;24.40;19.13;;;;;;;10.04;100.00;100929.19;5092062;28;20024;-61
2023/03/18 07:31:24;;;;;;;21.20;18.45;;;;;;;10.06;100.00;100925.47;5088609;28;20478;-61
2023/03/18 07:33:49;;;;;;;24.58;18.33;;;;;;;10.12;100.00;100932.13;5089990;28;20012;-61
2023/03/18 07:36:15;;;;;;;23.35;18.55;;;;;;;10.18;100.00;100932.50;5089915;28;20047;-61
2023/03/18 07:38:41;;;;;;;22.25;18.52;;;;;;;10.24;100.00;100933.03;5085765;28;20052;-61
2023/03/18 07:41:07;;;;;;;22.17;17.67;;;;;;;10.31;100.00;100943.09;5089299;28;20112;-61
2023/03/18 07:43:34;;;;;;;21.55;18.10;;;;;;;10.41;100.00;100945.06;5104894;28;20039;-61
2023/03/18 07:45:59;;;;;;;24.27;17.98;;;;;;;10.51;100.00;100946.09;5115800;27;20047;-61
2023/03/18 07:48:25;;;;;;;24.35;17.65;;;;;;;10.61;100.00;100952.41;5109891;28;20027;-61
2023/03/18 07:50:50;;;;;;;19.48;15.55;;;;;;;10.71;100.00;100952.56;5110928;28;20039;-61
2023/03/18 07:53:15;;;;;;;20.65;16.85;;;;;;;10.82;100.00;100955.25;5109655;28;20754;-61
2023/03/18 07:55:41;;;;;;;21.25;16.20;;;;;;;10.95;100.00;100965.78;5109536;27;20032;-61
2023/03/18 07:58:07;;;;;;;19.27;15.75;;;;;;;11.08;100.00;100958.56;5106033;28;20032;-61
2023/03/18 08:00:34;;;;;;;19.50;14.63;;;;;;;11.25;100.00;100946.63;5110533;28;20031;-62
2023/03/18 08:02:59;;;;;;;18.00;13.48;;;;;;;11.38;100.00;100945.69;5112599;28;20032;-60
2023/03/18 08:05:26;;;;;;;17.42;11.90;;;;;;;11.52;100.00;100950.75;5108737;28;20505;-61
2023/03/18 08:07:52;;;;;;;16.30;12.55;;;;;;;11.68;100.00;100938.91;5106067;28;20497;-61
2023/03/18 08:10:18;;;;;;;16.48;12.20;;;;;;;11.84;100.00;100937.56;5106375;28;20047;-61
2023/03/18 08:12:43;;;;;;;15.00;12.40;;;;;;;12.00;100.00;100937.19;5109929;28;20071;-61
2023/03/18 08:15:10;;;;;;;13.80;11.75;;;;;;;12.26;100.00;100931.56;5111930;28;20036;-61
2023/03/18 08:17:37;;;;;;;14.60;11.45;;;;;;;12.34;100.00;100929.09;5109688;28;20565;-62
2023/03/18 08:20:03;;;;;;;14.25;10.80;;;;;;;12.44;100.00;100931.84;5112007;28;20173;-61
2023/03/18 08:22:29;;;;;;;12.85;10.48;;;;;;;12.56;99.75;100936.16;5109094;28;20035;-62
2023/03/18 08:24:54;;;;;;;15.75;9.93;;;;;;;12.67;98.69;100927.25;5106132;28;20023;-62
2023/03/18 08:27:19;;;;;;;11.02;9.15;;;;;;;12.83;97.41;100934.78;5111692;28;20409;-62
2023/03/18 08:29:45;;;;;;;13.07;9.25;;;;;;;13.05;97.71;100930.31;5111510;28;20107;-62
2023/03/18 08:32:11;;;;;;;12.60;9.02;;;;;;;13.32;95.61;100935.97;5107870;28;20180;-62
2023/03/18 08:34:36;;;;;;;11.50;8.80;;;;;;;13.47;95.39;100930.25;5109603;28;20071;-62
2023/03/18 08:37:02;;;;;;;10.48;8.38;;;;;;;13.67;93.90;100937.38;5101141;28;20040;-62
2023/03/18 08:39:27;;;;;;;13.18;9.00;;;;;;;13.84;91.51;100940.38;5111693;28;20020;-62
2023/03/18 08:41:53;;;;;;;11.55;8.57;;;;;;;13.96;90.27;100951.78;5112407;28;20058;-62
2023/03/18 08:44:19;;;;;;;9.07;7.93;;;;;;;14.13;90.46;100952.94;5095199;28;20482;-62
2023/03/18 08:46:44;;;;;;;14.30;8.80;;;;;;;14.36;89.88;100958.88;5107561;28;20074;-62
2023/03/18 08:49:09;;;;;;;9.90;7.90;;;;;;;14.34;85.85;100959.00;5111509;28;20111;-62
2023/03/18 08:51:35;;;;;;;11.63;8.55;;;;;;;14.41;86.84;100957.47;5111044;28;20043;-60
2023/03/18 08:54:00;;;;;;;12.63;8.38;;;;;;;14.46;86.56;100962.38;5108220;28;20031;-60
2023/03/18 08:56:27;;;;;;;10.20;7.57;;;;;;;14.37;85.54;100964.06;5104762;28;20130;-61
2023/03/18 08:58:52;;;;;;;8.73;7.80;;;;;;;14.38;86.36;100959.56;5107658;28;20107;-61
2023/03/18 09:01:20;;;;;;;11.65;8.05;;;;;;;14.52;86.06;100955.63;5111666;28;20095;-60
2023/03/18 09:03:46;;;;;;;10.07;7.65;;;;;;;14.71;86.89;100958.34;5109248;28;20367;-60
2023/03/18 09:06:11;;;;;;;9.07;7.50;;;;;;;14.81;83.11;100971.69;5109442;28;20024;-60
2023/03/18 09:08:38;;;;;;;9.27;7.38;;;;;;;14.93;82.89;100970.53;5114525;27;20465;-61
2023/03/18 09:11:04;;;;;;;10.13;7.20;;;;;;;15.06;82.24;100972.09;5110734;27;20054;-61
2023/03/18 09:13:29;;;;;;;8.18;6.78;;;;;;;15.09;81.76;100974.50;5112314;27;20462;-61
2023/03/18 09:15:54;;;;;;;9.60;7.00;;;;;;;15.06;81.47;100972.94;5116386;27;20031;-60
2023/03/18 09:18:21;;;;;;;8.48;6.75;;;;;;;15.09;81.46;100967.28;5111871;27;20110;-60
2023/03/18 09:20:47;;;;;;;7.88;6.50;;;;;;;15.16;79.92;100967.56;5112254;28;20123;-60
2023/03/18 09:23:14;;;;;;;10.20;6.47;;;;;;;15.23;80.68;100965.97;5115009;27;20367;-61
2023/03/18 09:25:43;;;;;;;10.43;6.95;;;;;;;15.23;80.24;100974.00;5110857;28;20371;-60
2023/03/18 09:28:08;;;;;;;6.65;5.18;;;;;;;15.16;78.41;100965.72;5113194;28;20386;-62
2023/03/18 09:30:34;;;;;;;6.00;4.93;;;;;;;15.08;78.07;100970.94;5114985;27;20034;-61
2023/03/18 09:33:00;;;;;;;8.07;5.63;;;;;;;15.20;78.80;100968.94;5116180;27;20058;-62
2023/03/18 09:35:27;;;;;;;8.85;5.85;;;;;;;15.36;78.78;100981.72;5110387;28;20358;-61
2023/03/18 09:37:53;;;;;;;8.20;5.97;;;;;;;15.49;78.09;100973.38;5112524;27;20031;-61
2023/03/18 09:40:50;;;;;;;8.05;5.68;;;;;;;15.68;79.71;100957.22;5112030;28;20108;-61
2023/03/18 09:43:46;;;;;;;9.85;5.88;;;;;;;16.09;79.16;100962.25;5115436;27;20505;-61
2023/03/18 09:46:35;;;;;;;8.57;5.40;;;;;;;16.43;76.73;100959.75;5106371;28;20050;-61
2023/03/18 09:49:30;;;;;;;9.10;5.32;;;;;;;16.64;75.86;100958.63;5108057;28;20039;-61
2023/03/18 09:51:59;;;;;;;7.28;4.50;;;;;;;16.73;72.37;100959.50;5085629;28;20172;-62
2023/03/18 09:54:25;;;;;;;;;;;;;;;16.90;77.05;100955.97;5119504;27;20474;-61
2023/03/18 09:56:52;;;;;;;6.78;4.25;;;;;;;17.06;71.14;100951.75;5115149;28;19911;-62
2023/03/18 09:59:25;;;;;;;5.32;3.90;;;;;;;17.19;71.40;100950.31;5115293;28;20432;-63
2023/03/18 10:01:55;;;;;;;7.55;3.92;;;;;;;17.43;68.92;100953.31;5115362;28;20051;-61
2023/03/18 10:04:27;;;;;;;8.07;3.50;;;;;;;17.57;66.58;100953.56;5119789;27;20386;-61
2023/03/18 10:06:58;;;;;;;7.32;3.55;;;;;;;17.54;66.43;100961.09;5122417;27;20028;-61
2023/03/18 10:09:33;;;;;;;6.13;3.42;;;;;;;17.56;66.19;100961.78;5114925;28;20122;-61
2023/03/18 10:12:24;;;;;;;4.85;3.30;;;;;;;17.62;68.39;100965.66;5114471;28;20028;-61
2023/03/18 10:15:21;;;;;;;5.50;3.13;;;;;;;17.85;65.98;100969.47;5072240;28;20466;-61
2023/03/18 10:17:54;;;;;;;5.95;3.25;;;;;;;17.93;64.02;100971.34;5089587;28;20050;-62
2023/03/18 10:20:33;;;;;;;7.72;3.75;;;;;;;18.00;66.17;100958.09;5115621;27;20031;-62
2023/03/18 10:23:37;;;;;;;5.93;3.65;;;;;;;18.10;65.75;100961.47;5102933;27;20105;-61
2023/03/18 10:26:14;;;;;;;6.60;3.20;;;;;;;17.94;63.99;100962.28;5108236;28;20035;-64
2023/03/18 10:28:43;;;;;;;6.53;3.63;;;;;;;18.04;63.75;100971.06;5108601;28;20385;-61
2023/03/18 10:31:19;;;;;;;8.50;3.35;;;;;;;18.14;61.78;100959.34;5119373;27;20023;-63
2023/03/18 10:33:47;;;;;;;7.40;3.55;;;;;;;18.31;63.94;100969.94;5107168;28;20063;-61
2023/03/18 10:36:48;;;;;;;6.35;2.67;;;;;;;18.48;63.20;100968.13;5111796;27;20028;-62
2023/03/18 10:39:34;;;;;;;6.03;2.70;;;;;;;18.62;63.63;100963.94;5102120;28;20122;-60
2023/03/18 10:42:21;;;;;;;7.55;3.00;;;;;;;18.65;59.79;100951.97;5113897;28;20486;-61
2023/03/18 10:44:48;;;;;;;6.35;3.03;;;;;;;18.44;59.00;100949.81;5102816;28;20122;-62
2023/03/18 10:47:35;;;;;;;4.70;2.70;;;;;;;18.37;61.87;100956.84;5093666;28;20026;-60
2023/03/18 10:50:19;;;;;;;5.05;2.22;;;;;;;18.30;59.27;100951.28;5114371;28;20040;-61
2023/03/18 10:53:00;;;;;;;5.68;2.47;;;;;;;18.25;59.32;100945.56;5108926;28;20047;-62
2023/03/18 10:55:33;;;;;;;7.22;2.60;;;;;;;18.27;60.63;100946.25;5114433;27;20115;-61
2023/03/18 10:58:00;;;;;;;4.88;2.00;;;;;;;18.21;59.17;100945.06;5106096;28;20062;-61
2023/03/18 11:00:31;;;;;;;6.13;2.70;;;;;;;18.03;58.59;100942.47;5110387;28;20506;-61
2023/03/18 11:02:57;;;;;;;3.50;2.05;;;;;;;17.91;59.11;100954.56;5113538;28;20053;-61
2023/03/18 11:05:32;;;;;;;6.47;2.50;;;;;;;17.87;60.53;100947.81;5104194;27;20458;-62
2023/03/18 11:08:07;;;;;;;7.60;2.72;;;;;;;17.85;60.69;100955.16;5102797;28;20028;-62
2023/03/18 11:10:35;;;;;;;6.05;2.45;;;;;;;17.76;60.02;100959.69;5110946;28;20031;-62
2023/03/18 11:13:02;;;;;;;7.47;2.77;;;;;;;17.68;60.22;100955.09;5108519;27;20027;-62
2023/03/18 11:15:34;;;;;;;6.95;2.90;;;;;;;17.60;61.05;100949.69;5113072;27;20293;-61
2023/03/18 11:18:04;;;;;;;7.85;2.67;;;;;;;17.65;59.95;100949.22;5109911;27;20031;-61